createdAt,value
2022-07-25T00:01:46.784Z,23.95
2022-07-25T00:04:14.504Z,23.95
2022-07-25T00:06:42.198Z,24.00
2022-07-25T00:09:09.565Z,23.91
2022-07-25T00:11:36.235Z,23.81
2022-07-25T00:14:03.358Z,23.80
2022-07-25T00:16:30.468Z,23.77
2022-07-25T00:18:57.291Z,23.81
2022-07-25T00:21:23.951Z,23.82
2022-07-25T00:23:50.718Z,23.73
2022-07-25T00:26:17.380Z,23.68
2022-07-25T00:28:44.354Z,23.67
2022-07-25T00:31:11.300Z,23.69
2022-07-25T00:33:39.861Z,23.65
2022-07-25T00:36:08.099Z,23.60
2022-07-25T00:38:35.209Z,23.52
2022-07-25T00:41:02.914Z,23.44
2022-07-25T00:43:29.633Z,23.36
2022-07-25T00:45:58.749Z,23.43
2022-07-25T00:48:29.723Z,23.45
2022-07-25T00:50:57.086Z,23.49
2022-07-25T00:53:24.550Z,23.42
2022-07-25T00:55:52.201Z,23.34
2022-07-25T00:58:18.982Z,23.39
2022-07-25T01:00:46.115Z,23.26
2022-07-25T01:03:13.004Z,23.30
2022-07-25T01:05:39.790Z,23.27
2022-07-25T01:08:06.603Z,23.16
2022-07-25T01:10:34.006Z,23.00
2022-07-25T01:13:01.102Z,22.94
2022-07-25T01:15:28.362Z,22.94
2022-07-25T01:17:55.210Z,22.94
2022-07-25T01:20:23.819Z,22.87
2022-07-25T01:22:51.150Z,22.84
2022-07-25T01:25:17.871Z,22.85
2022-07-25T01:27:44.669Z,22.79
2022-07-25T01:30:13.867Z,22.69
2022-07-25T01:32:41.024Z,22.65
2022-07-25T01:35:08.570Z,22.68
2022-07-25T01:37:35.635Z,22.63
2022-07-25T01:40:04.459Z,22.56
2022-07-25T01:42:31.191Z,22.59
2022-07-25T01:44:58.450Z,22.51
2022-07-25T01:47:25.534Z,22.48
2022-07-25T01:49:52.504Z,22.47
2022-07-25T01:52:19.213Z,22.47
2022-07-25T01:54:45.988Z,22.50
2022-07-25T01:57:15.060Z,22.47
2022-07-25T01:59:43.601Z,22.42
2022-07-25T02:02:10.890Z,22.40
2022-07-25T02:04:37.780Z,22.52
2022-07-25T02:07:06.198Z,22.58
2022-07-25T02:09:33.049Z,22.47
2022-07-25T02:11:59.677Z,22.33
2022-07-25T02:14:26.545Z,22.43
2022-07-25T02:16:53.929Z,22.43
2022-07-25T02:19:20.777Z,22.45
2022-07-25T02:21:47.553Z,22.41
2022-07-25T02:24:14.393Z,22.31
2022-07-25T02:26:41.088Z,22.16
2022-07-25T02:29:07.938Z,22.07
2022-07-25T02:31:34.610Z,22.04
2022-07-25T02:34:01.877Z,21.96
2022-07-25T02:36:28.622Z,21.91
2022-07-25T02:38:55.557Z,21.89
2022-07-25T02:41:22.254Z,21.87
2022-07-25T02:43:48.998Z,21.89
2022-07-25T02:46:15.722Z,22.02
2022-07-25T02:48:42.559Z,21.96
2022-07-25T02:51:09.297Z,21.86
2022-07-25T02:53:55.897Z,21.77
2022-07-25T02:56:23.063Z,21.84
2022-07-25T02:58:50.250Z,21.86
2022-07-25T03:01:17.140Z,21.85
2022-07-25T03:03:44.028Z,21.96
2022-07-25T03:06:10.850Z,21.85
2022-07-25T03:08:37.654Z,21.80
2022-07-25T03:11:04.786Z,21.77
2022-07-25T03:13:33.193Z,21.76
2022-07-25T03:16:00.287Z,21.79
2022-07-25T03:18:26.999Z,21.64
2022-07-25T03:20:53.740Z,21.56
2022-07-25T03:23:20.419Z,21.52
2022-07-25T03:25:47.138Z,21.43
2022-07-25T03:28:13.787Z,21.36
2022-07-25T03:30:40.567Z,21.34
2022-07-25T03:33:07.269Z,21.32
2022-07-25T03:35:35.185Z,21.30
2022-07-25T03:38:02.311Z,21.33
2022-07-25T03:40:29.250Z,21.28
2022-07-25T03:42:55.978Z,21.27
2022-07-25T03:45:22.761Z,21.38
2022-07-25T03:47:50.106Z,21.44
2022-07-25T03:50:17.003Z,21.47
2022-07-25T03:52:43.773Z,21.45
2022-07-25T03:55:11.560Z,21.47
2022-07-25T03:57:39.032Z,21.48
2022-07-25T04:00:08.647Z,21.47
2022-07-25T04:02:37.694Z,21.49
2022-07-25T04:05:08.112Z,21.39
2022-07-25T04:07:34.911Z,21.33
2022-07-25T04:10:01.913Z,21.20
2022-07-25T04:12:28.591Z,21.19
2022-07-25T04:14:55.286Z,21.13
2022-07-25T04:17:22.107Z,21.13
2022-07-25T04:19:51.004Z,21.21
2022-07-25T04:22:17.722Z,21.27
2022-07-25T04:24:44.489Z,21.28
2022-07-25T04:27:11.231Z,21.17
2022-07-25T04:29:37.966Z,21.08
2022-07-25T04:32:05.417Z,21.08
2022-07-25T04:34:32.191Z,21.10
2022-07-25T04:36:58.927Z,21.11
2022-07-25T04:39:25.580Z,21.09
2022-07-25T04:41:52.288Z,21.16
2022-07-25T04:44:18.935Z,21.16
2022-07-25T04:46:45.625Z,21.18
2022-07-25T04:49:12.321Z,21.23
2022-07-25T04:51:39.108Z,21.28
2022-07-25T04:54:06.434Z,21.27
2022-07-25T04:56:33.382Z,21.31
2022-07-25T04:59:04.816Z,21.30
2022-07-25T05:01:34.436Z,21.29
2022-07-25T05:04:01.265Z,21.30
2022-07-25T05:06:28.048Z,21.35
2022-07-25T05:08:55.494Z,21.40
2022-07-25T05:11:22.337Z,21.48
2022-07-25T05:13:48.992Z,21.57
2022-07-25T05:16:15.780Z,21.62
2022-07-25T05:18:42.571Z,21.66
2022-07-25T05:21:12.664Z,21.67
2022-07-25T05:23:39.783Z,21.76
2022-07-25T05:26:06.463Z,21.78
2022-07-25T05:28:33.259Z,21.81
2022-07-25T05:31:00.239Z,21.83
2022-07-25T05:33:27.139Z,21.88
2022-07-25T05:35:53.875Z,21.94
2022-07-25T05:38:20.773Z,22.00
2022-07-25T05:40:48.092Z,22.08
2022-07-25T05:43:14.893Z,22.14
2022-07-25T05:45:41.631Z,22.17
2022-07-25T05:48:08.398Z,22.22
2022-07-25T05:50:37.040Z,22.25
2022-07-25T05:53:03.784Z,22.33
2022-07-25T05:55:30.486Z,22.39
2022-07-25T05:57:57.161Z,22.43
2022-07-25T06:00:24.287Z,22.46
2022-07-25T06:02:51.094Z,22.51
2022-07-25T06:05:17.847Z,22.58
2022-07-25T06:07:44.571Z,22.64
2022-07-25T06:10:11.355Z,22.71
2022-07-25T06:12:38.128Z,22.75
2022-07-25T06:15:05.989Z,22.79
2022-07-25T06:17:33.091Z,22.84
2022-07-25T06:19:59.864Z,22.88
2022-07-25T06:22:26.609Z,22.93
2022-07-25T06:24:53.258Z,23.00
2022-07-25T06:27:21.622Z,23.05
2022-07-25T06:29:49.887Z,23.09
2022-07-25T06:32:16.575Z,23.11
2022-07-25T06:34:43.655Z,23.16
2022-07-25T06:37:10.444Z,23.23
2022-07-25T06:39:37.194Z,23.27
2022-07-25T06:42:04.576Z,23.32
2022-07-25T06:44:35.412Z,23.37
2022-07-25T06:47:03.162Z,23.41
2022-07-25T06:49:29.849Z,23.45
2022-07-25T06:51:56.632Z,23.50
2022-07-25T06:54:23.650Z,23.60
2022-07-25T06:56:50.348Z,23.67
2022-07-25T06:59:17.099Z,23.74
2022-07-25T07:01:45.962Z,23.83
2022-07-25T07:04:16.511Z,23.95
2022-07-25T07:06:43.867Z,24.08
2022-07-25T07:09:10.706Z,24.19
2022-07-25T07:11:37.462Z,24.29
2022-07-25T07:14:04.982Z,24.41
2022-07-25T07:16:32.103Z,24.52
2022-07-25T07:18:58.856Z,24.66
2022-07-25T07:21:25.493Z,24.76
2022-07-25T07:23:53.640Z,24.88
2022-07-25T07:26:21.500Z,25.04
2022-07-25T07:28:48.377Z,25.16
2022-07-25T07:31:18.316Z,25.26
2022-07-25T07:33:45.721Z,25.51
2022-07-25T07:36:12.536Z,25.56
2022-07-25T07:38:39.944Z,25.64
2022-07-25T07:41:06.652Z,25.73
2022-07-25T07:43:33.339Z,25.80
2022-07-25T07:46:00.973Z,25.87
2022-07-25T07:48:29.290Z,25.96
2022-07-25T07:50:56.111Z,26.04
2022-07-25T07:53:22.941Z,26.14
2022-07-25T07:55:55.251Z,26.22
2022-07-25T07:58:22.164Z,26.32
2022-07-25T08:00:50.963Z,26.37
2022-07-25T08:03:19.529Z,26.45
2022-07-25T08:05:48.932Z,26.55
2022-07-25T08:08:16.242Z,26.63
2022-07-25T08:10:46.550Z,26.71
2022-07-25T08:13:15.896Z,26.76
2022-07-25T08:15:44.341Z,26.84
2022-07-25T08:18:17.355Z,26.92
2022-07-25T08:20:48.634Z,26.96
2022-07-25T08:23:15.496Z,27.04
2022-07-25T08:25:42.771Z,27.10
2022-07-25T08:28:09.573Z,27.18
2022-07-25T08:30:37.443Z,27.23
2022-07-25T08:33:07.340Z,27.28
2022-07-25T08:35:34.808Z,27.36
2022-07-25T08:38:02.746Z,27.43
2022-07-25T08:40:30.544Z,27.53
2022-07-25T08:42:58.510Z,27.60
2022-07-25T08:45:26.796Z,27.63
2022-07-25T08:47:54.666Z,27.64
2022-07-25T08:50:25.002Z,27.65
2022-07-25T08:53:04.587Z,27.68
2022-07-25T08:55:37.148Z,27.76
2022-07-25T08:58:03.860Z,27.77
2022-07-25T09:00:30.662Z,27.81
2022-07-25T09:03:03.502Z,27.85
2022-07-25T09:05:32.058Z,27.91
2022-07-25T09:08:17.474Z,27.98
2022-07-25T09:10:50.242Z,28.02
2022-07-25T09:13:21.578Z,28.05
2022-07-25T09:15:53.832Z,28.09
2022-07-25T09:18:25.311Z,28.14
2022-07-25T09:20:54.325Z,28.17
2022-07-25T09:23:38.162Z,28.22
2022-07-25T09:26:11.554Z,28.23
2022-07-25T09:28:45.291Z,28.29
2022-07-25T09:31:13.483Z,28.36
2022-07-25T09:33:56.469Z,28.40
2022-07-25T09:36:23.868Z,28.44
2022-07-25T09:38:57.794Z,28.43
2022-07-25T09:41:41.211Z,28.43
2022-07-25T09:44:17.886Z,28.42
2022-07-25T09:46:45.577Z,28.43
2022-07-25T09:49:14.685Z,28.45
2022-07-25T09:51:42.324Z,28.49
2022-07-25T09:54:09.540Z,28.50
2022-07-25T09:56:36.645Z,28.49
2022-07-25T09:59:04.983Z,28.52
2022-07-25T10:01:37.300Z,28.53
2022-07-25T10:04:14.715Z,28.54
2022-07-25T10:06:53.728Z,28.58
2022-07-25T10:09:20.751Z,28.63
2022-07-25T10:12:07.942Z,28.64
2022-07-25T10:14:35.455Z,28.68
2022-07-25T10:17:02.358Z,28.68
2022-07-25T10:19:50.187Z,28.70
2022-07-25T10:22:29.624Z,28.77
2022-07-25T10:25:19.692Z,28.80
2022-07-25T10:27:50.960Z,28.84
2022-07-25T10:30:23.645Z,28.88
2022-07-25T10:32:57.671Z,28.95
2022-07-25T10:35:26.034Z,29.10
2022-07-25T10:37:54.308Z,29.17
2022-07-25T10:40:43.452Z,29.29
2022-07-25T10:43:19.943Z,29.41
2022-07-25T10:45:55.532Z,29.47
2022-07-25T10:48:23.157Z,29.59
2022-07-25T10:50:59.117Z,29.68
2022-07-25T10:53:34.148Z,29.72
2022-07-25T10:56:21.171Z,29.81
2022-07-25T10:58:52.251Z,29.80
2022-07-25T11:01:24.047Z,29.79
2022-07-25T11:03:52.399Z,29.80
2022-07-25T11:06:30.016Z,29.80
2022-07-25T11:08:57.901Z,29.83
2022-07-25T11:11:38.786Z,29.84
2022-07-25T11:14:06.663Z,29.89
2022-07-25T11:16:33.445Z,29.91
2022-07-25T11:19:00.193Z,29.94
2022-07-25T11:21:26.895Z,29.99
2022-07-25T11:23:53.843Z,30.07
2022-07-25T11:26:20.883Z,30.11
2022-07-25T11:28:49.210Z,30.19
2022-07-25T11:31:17.752Z,30.25
2022-07-25T11:33:47.513Z,30.26
2022-07-25T11:36:14.475Z,30.34
2022-07-25T11:38:42.239Z,30.37
2022-07-25T11:41:09.038Z,30.42
2022-07-25T11:43:35.750Z,30.50
2022-07-25T11:46:06.619Z,30.55
2022-07-25T11:48:39.450Z,30.59
2022-07-25T11:51:18.104Z,30.61
2022-07-25T11:53:48.490Z,30.62
2022-07-25T11:56:40.790Z,30.71
2022-07-25T11:59:02.150Z,30.62
2022-07-25T12:01:37.386Z,30.55
2022-07-25T12:04:16.011Z,30.52
2022-07-25T12:06:45.023Z,30.51
2022-07-25T12:09:21.393Z,30.52
2022-07-25T12:11:49.285Z,30.49
2022-07-25T12:14:16.266Z,30.50
2022-07-25T12:16:43.109Z,30.49
2022-07-25T12:19:18.979Z,30.45
2022-07-25T12:21:45.996Z,30.43
2022-07-25T12:24:12.732Z,30.40
2022-07-25T12:26:39.459Z,30.35
2022-07-25T12:29:06.362Z,30.28
2022-07-25T12:31:33.382Z,30.25
2022-07-25T12:34:00.391Z,30.25
2022-07-25T12:36:27.139Z,30.23
2022-07-25T12:38:53.811Z,30.26
2022-07-25T12:41:22.804Z,30.24
2022-07-25T12:43:49.830Z,30.24
2022-07-25T12:46:16.916Z,30.25
2022-07-25T12:48:44.207Z,30.25
2022-07-25T12:51:11.115Z,30.26
2022-07-25T12:53:42.325Z,30.26
2022-07-25T12:56:09.798Z,30.28
2022-07-25T12:58:37.088Z,30.31
2022-07-25T13:01:05.752Z,30.33
2022-07-25T13:03:32.656Z,30.36
2022-07-25T13:05:59.423Z,30.38
2022-07-25T13:08:26.111Z,30.41
2022-07-25T13:10:52.876Z,30.43
2022-07-25T13:13:19.528Z,30.42
2022-07-25T13:15:46.434Z,30.45
2022-07-25T13:18:13.270Z,30.46
2022-07-25T13:20:39.976Z,30.51
2022-07-25T13:23:06.688Z,30.52
2022-07-25T13:25:34.296Z,30.51
2022-07-25T13:28:04.105Z,30.53
2022-07-25T13:30:37.726Z,30.59
2022-07-25T13:33:04.914Z,30.61
2022-07-25T13:35:38.169Z,30.63
2022-07-25T13:38:05.759Z,30.66
2022-07-25T13:40:32.494Z,30.66
2022-07-25T13:42:59.267Z,30.69
2022-07-25T13:45:26.048Z,30.72
2022-07-25T13:48:12.031Z,30.74
2022-07-25T13:50:39.835Z,30.77
2022-07-25T13:53:06.989Z,30.80
2022-07-25T13:55:34.067Z,30.79
2022-07-25T13:58:00.947Z,30.83
2022-07-25T14:00:27.884Z,30.83
2022-07-25T14:02:54.522Z,30.83
2022-07-25T14:05:21.296Z,30.80
2022-07-25T14:07:48.054Z,30.81
2022-07-25T14:10:14.822Z,30.80
2022-07-25T14:12:41.540Z,30.80
2022-07-25T14:15:08.803Z,30.82
2022-07-25T14:17:35.568Z,30.86
2022-07-25T14:20:03.769Z,30.87
2022-07-25T14:22:30.431Z,30.90
2022-07-25T14:24:57.220Z,30.91
2022-07-25T14:27:24.512Z,30.88
2022-07-25T14:29:51.191Z,30.87
2022-07-25T14:32:17.848Z,30.90
2022-07-25T14:34:44.841Z,30.93
2022-07-25T14:37:12.037Z,30.92
2022-07-25T14:39:38.837Z,30.93
2022-07-25T14:42:06.569Z,30.90
2022-07-25T14:44:33.743Z,30.84
2022-07-25T14:47:00.750Z,30.81
2022-07-25T14:49:30.066Z,30.78
2022-07-25T14:51:57.828Z,30.77
2022-07-25T14:54:29.035Z,30.77
2022-07-25T14:56:56.742Z,30.78
2022-07-25T14:59:25.272Z,30.82
2022-07-25T15:01:53.138Z,30.82
2022-07-25T15:04:22.055Z,30.82
2022-07-25T15:06:49.093Z,30.82
2022-07-25T15:09:16.276Z,30.80
2022-07-25T15:11:43.007Z,30.80
2022-07-25T15:14:09.693Z,30.77
2022-07-25T15:16:37.439Z,30.76
2022-07-25T15:19:16.518Z,30.72
2022-07-25T15:21:43.841Z,30.80
2022-07-25T15:24:10.531Z,30.76
2022-07-25T15:26:37.451Z,30.72
2022-07-25T15:29:08.060Z,30.66
2022-07-25T15:31:38.555Z,30.59
2022-07-25T15:34:05.270Z,30.68
2022-07-25T15:36:31.946Z,30.68
2022-07-25T15:38:58.644Z,30.71
2022-07-25T15:41:26.547Z,30.72
2022-07-25T15:43:53.407Z,30.66
2022-07-25T15:46:20.229Z,30.68
2022-07-25T15:48:47.041Z,30.72
2022-07-25T15:51:16.603Z,30.72
2022-07-25T15:53:43.567Z,30.79
2022-07-25T15:56:10.898Z,30.83
2022-07-25T15:58:37.628Z,30.86
2022-07-25T16:01:04.485Z,30.90
2022-07-25T16:03:31.299Z,30.88
2022-07-25T16:05:58.882Z,30.87
2022-07-25T16:08:25.691Z,30.88
2022-07-25T16:10:52.840Z,30.93
2022-07-25T16:13:19.578Z,30.91
2022-07-25T16:15:46.362Z,30.84
2022-07-25T16:18:13.150Z,30.84
2022-07-25T16:20:39.842Z,30.83
2022-07-25T16:23:06.769Z,30.74
2022-07-25T16:25:33.439Z,30.73
2022-07-25T16:28:00.233Z,30.77
2022-07-25T16:30:27.369Z,30.80
2022-07-25T16:32:54.109Z,30.81
2022-07-25T16:35:20.938Z,30.88
2022-07-25T16:37:48.121Z,30.91
2022-07-25T16:40:15.109Z,30.92
2022-07-25T16:42:42.343Z,30.97
2022-07-25T16:45:10.235Z,30.94
2022-07-25T16:47:37.231Z,30.87
2022-07-25T16:50:04.318Z,30.84
2022-07-25T16:52:31.038Z,30.90
2022-07-25T16:54:57.683Z,30.92
2022-07-25T16:57:24.889Z,30.97
2022-07-25T16:59:53.342Z,30.98
2022-07-25T17:02:22.950Z,31.00
2022-07-25T17:04:53.045Z,31.01
2022-07-25T17:07:19.778Z,30.99
2022-07-25T17:09:46.495Z,30.96
2022-07-25T17:12:13.212Z,30.95
2022-07-25T17:14:39.999Z,30.94
2022-07-25T17:17:06.746Z,30.98
2022-07-25T17:19:36.335Z,30.94
2022-07-25T17:22:02.976Z,30.93
2022-07-25T17:24:29.722Z,30.98
2022-07-25T17:26:56.435Z,30.98
2022-07-25T17:29:23.187Z,30.95
2022-07-25T17:31:49.827Z,30.81
2022-07-25T17:34:16.614Z,30.84
2022-07-25T17:36:43.546Z,30.77
2022-07-25T17:39:11.764Z,30.74
2022-07-25T17:41:38.494Z,30.61
2022-07-25T17:44:09.956Z,30.54
2022-07-25T17:46:38.504Z,30.43
2022-07-25T17:49:05.316Z,30.49
2022-07-25T17:51:32.022Z,30.44
2022-07-25T17:53:58.770Z,30.39
2022-07-25T17:56:25.702Z,30.35
2022-07-25T17:58:52.496Z,30.21
2022-07-25T18:01:19.357Z,30.20
2022-07-25T18:03:47.562Z,30.21
2022-07-25T18:06:14.787Z,30.21
2022-07-25T18:08:41.590Z,30.17
2022-07-25T18:11:08.374Z,30.01
2022-07-25T18:13:35.349Z,29.99
2022-07-25T18:16:02.249Z,29.98
2022-07-25T18:18:29.445Z,29.92
2022-07-25T18:20:56.141Z,29.93
2022-07-25T18:23:24.257Z,29.89
2022-07-25T18:25:52.089Z,29.79
2022-07-25T18:28:19.047Z,29.70
2022-07-25T18:30:45.796Z,29.68
2022-07-25T18:33:12.443Z,29.54
2022-07-25T18:35:39.195Z,29.53
2022-07-25T18:38:05.941Z,29.59
2022-07-25T18:40:32.633Z,29.65
2022-07-25T18:42:59.340Z,29.65
2022-07-25T18:45:26.070Z,29.64
2022-07-25T18:47:53.476Z,29.68
2022-07-25T18:50:20.390Z,29.72
2022-07-25T18:52:47.252Z,29.73
2022-07-25T18:55:13.953Z,29.70
2022-07-25T18:57:40.604Z,29.64
2022-07-25T19:00:10.852Z,29.60
2022-07-25T19:02:37.672Z,29.56
2022-07-25T19:05:05.613Z,29.44
2022-07-25T19:07:33.429Z,29.30
2022-07-25T19:10:00.353Z,29.18
2022-07-25T19:12:27.425Z,29.15
2022-07-25T19:14:54.712Z,29.10
2022-07-25T19:17:21.511Z,29.02
2022-07-25T19:19:48.207Z,28.93
2022-07-25T19:22:14.999Z,28.79
2022-07-25T19:24:42.339Z,28.69
2022-07-25T19:27:09.719Z,28.65
2022-07-25T19:29:40.034Z,28.56
2022-07-25T19:32:07.174Z,28.42
2022-07-25T19:34:33.963Z,28.28
2022-07-25T19:37:00.826Z,28.27
2022-07-25T19:39:27.548Z,28.20
2022-07-25T19:41:54.355Z,28.13
2022-07-25T19:44:21.246Z,28.12
2022-07-25T19:46:49.527Z,28.08
2022-07-25T19:49:16.277Z,28.01
2022-07-25T19:51:43.057Z,27.88
2022-07-25T19:54:11.208Z,27.80
2022-07-25T19:56:38.387Z,27.81
2022-07-25T19:59:05.557Z,27.83
2022-07-25T20:01:36.431Z,27.82
2022-07-25T20:04:05.360Z,27.78
2022-07-25T20:06:32.578Z,27.73
2022-07-25T20:08:59.305Z,27.71
2022-07-25T20:11:25.979Z,27.75
2022-07-25T20:13:54.239Z,27.75
2022-07-25T20:16:21.117Z,27.68
2022-07-25T20:18:48.042Z,27.59
2022-07-25T20:21:17.390Z,27.58
2022-07-25T20:23:45.144Z,27.58
2022-07-25T20:26:12.310Z,27.45
2022-07-25T20:28:39.192Z,27.40
2022-07-25T20:31:06.293Z,27.29
2022-07-25T20:33:33.066Z,27.09
2022-07-25T20:36:00.032Z,27.07
2022-07-25T20:38:32.290Z,27.11
2022-07-25T20:40:59.890Z,27.10
2022-07-25T20:43:27.170Z,27.09
2022-07-25T20:45:54.013Z,27.15
2022-07-25T20:48:20.765Z,27.11
2022-07-25T20:50:47.442Z,27.11
2022-07-25T20:53:14.141Z,27.07
2022-07-25T20:55:40.867Z,27.13
2022-07-25T20:58:07.719Z,27.22
2022-07-25T21:00:34.936Z,27.18
2022-07-25T21:03:02.688Z,27.20
2022-07-25T21:05:29.723Z,27.23
2022-07-25T21:07:56.730Z,27.18
2022-07-25T21:10:23.616Z,27.23
2022-07-25T21:12:50.372Z,27.18
2022-07-25T21:15:17.490Z,27.16
2022-07-25T21:17:44.254Z,27.08
2022-07-25T21:20:12.505Z,27.02
2022-07-25T21:22:40.047Z,26.90
2022-07-25T21:25:07.392Z,26.80
2022-07-25T21:27:34.423Z,26.86
2022-07-25T21:30:01.240Z,26.95
2022-07-25T21:32:28.053Z,26.95
2022-07-25T21:34:54.883Z,26.78
2022-07-25T21:37:21.606Z,26.68
2022-07-25T21:39:48.351Z,26.72
2022-07-25T21:42:15.255Z,26.78
2022-07-25T21:44:43.580Z,26.76
2022-07-25T21:47:10.860Z,26.78
2022-07-25T21:49:56.625Z,26.78
2022-07-25T21:52:34.376Z,26.77
2022-07-25T21:55:02.470Z,26.79
2022-07-25T21:57:29.211Z,26.81
2022-07-25T21:59:55.970Z,26.78
2022-07-25T22:02:23.433Z,26.75
2022-07-25T22:04:50.305Z,26.68
2022-07-25T22:07:16.990Z,26.64
2022-07-25T22:09:43.842Z,26.65
2022-07-25T22:12:10.546Z,26.59
2022-07-25T22:14:38.101Z,26.56
2022-07-25T22:17:05.920Z,26.52
2022-07-25T22:19:33.109Z,26.53
2022-07-25T22:22:00.026Z,26.43
2022-07-25T22:24:27.025Z,26.41
2022-07-25T22:26:53.756Z,26.31
2022-07-25T22:29:20.427Z,26.26
2022-07-25T22:31:47.311Z,26.18
2022-07-25T22:34:14.059Z,26.12
2022-07-25T22:36:41.046Z,26.08
2022-07-25T22:39:08.417Z,26.06
2022-07-25T22:41:35.453Z,26.06
2022-07-25T22:44:02.199Z,26.02
2022-07-25T22:46:29.971Z,25.93
2022-07-25T22:48:58.171Z,25.88
2022-07-25T22:51:25.481Z,25.85
2022-07-25T22:53:52.692Z,25.84
2022-07-25T22:56:19.569Z,25.79
2022-07-25T22:58:49.272Z,25.74
2022-07-25T23:01:17.742Z,25.75
2022-07-25T23:03:45.009Z,25.72
2022-07-25T23:06:11.953Z,25.73
2022-07-25T23:08:38.819Z,25.72
2022-07-25T23:11:06.193Z,25.74
2022-07-25T23:13:33.751Z,25.72
2022-07-25T23:16:00.567Z,25.67
2022-07-25T23:18:28.635Z,25.64
2022-07-25T23:20:55.309Z,25.67
2022-07-25T23:23:22.196Z,25.64
2022-07-25T23:25:48.843Z,25.57
2022-07-25T23:28:15.575Z,25.43
2022-07-25T23:30:42.273Z,25.38
2022-07-25T23:33:09.162Z,25.43
2022-07-25T23:35:36.185Z,25.45
2022-07-25T23:38:03.383Z,25.43
2022-07-25T23:40:30.411Z,25.38
2022-07-25T23:42:57.082Z,25.36
2022-07-25T23:45:26.975Z,25.40
2022-07-25T23:47:55.522Z,25.41
2022-07-25T23:50:22.719Z,25.35
2022-07-25T23:52:49.473Z,25.30
2022-07-25T23:55:16.202Z,25.32
2022-07-25T23:57:43.175Z,25.31
